Waunakee, WI

2:13 AM CST on January 22, 2017 (GMT -0600)
Prairie Park | | Change Station
Active Advisory: Dense Fog Advisory

Elev 928 ft 43.20 °N, 89.45 °W | Updated 12 seconds ago

Fog
Fog
39.2 °F
Feels Like 39 °F
N
0.0
Wind Variable Wind from NNE
Gusts 1.3 mph

Today
High -- | Low -- °F
--% Chance of Precip.
Yesterday
High -- | Low -- °F
Precip. -- in
Pressure 29.56 in
Visibility 0.5 miles
Clouds Overcast 200 ft
Windchill 39 °F
Dew Point Not available.
Humidity Not available.
Rainfall 0.00 in
Snow Depth Not available.
7:22 AM 4:57 PM
Waning Crescent, 28% visible
METAR KC29 220755Z AUTO 25004KT 1/2SM OVC002 05/05 A2956 RMK AO1 T00480048
Pressure 29.56 in
Visibility 0.5 miles
Clouds Overcast 200 ft
Windchill 39 °F
Dew Point Not available.
Humidity Not available.
Rainfall 0.00 in
Snow Depth Not available.
7:22 AM 4:57 PM
Waning Crescent, 28% visible
METAR KC29 220755Z AUTO 25004KT 1/2SM OVC002 05/05 A2956 RMK AO1 T00480048

Get Your Daily Forecast Email!

Thanks for signing up!

Be on the lookout for a verification email in your inbox.

You'll start receiving the daily forecast at 8 AM.

×

10-Day Weather Forecast

Almanac

Astronomy

Jan. 22, 2017 Rise Set
Actual Time
Civil Twilight
Nautical Twilight
Astronomical Twilight
Moon
Length of Visible Light
Length of Day
Tomorrow will be .
, % of the Moon is Illuminated

Today's Extremes

State Highs State Lows

Community

WunderPhotos

Upload Photos

1,962,540 photos uploaded!

WunderBlog® & News

Nearby

Air Quality

  Air Quality AQ Index Pollutant
Not available.

Snow Depth

Station Depth Elevation

Earthquake Activity

City Distance Mag. Time & Date
Minimum magnitude displayed is 2.5.

Coastal Water Temperatures

Place Temperature

Stations

Nearby Weather Stations

Station Location Temp. Windchill Dew Point Humidity Wind Precip. Elev Updated Type
                   

Watches & Warnings

Dense Fog Advisory
Issued: 9:17 PM CST Jan. 21, 2017 – National Weather Service

... Dense fog advisory remains in effect until noon CST Sunday...

A dense fog advisory remains in effect until noon CST Sunday.

* Timing... areas of dense fog will develop overnight and continue into
Sunday morning.

* Visibility... falling to around 1/4 mile or less in dense fog.

* Impacts... severely reduced visibility will lead to poor
driving conditions. Slow down and drive with caution.

Precautionary/preparedness actions...

A dense fog advisory means visibilities will frequently be
reduced to less than one quarter mile. If driving... slow down...
use your headlights... and leave plenty of distance ahead of you.


Kavinsky